createdAt,value
2023-05-07T00:00:49.571Z,15.43
2023-05-07T00:03:18.137Z,15.57
2023-05-07T00:05:47.430Z,11.73
2023-05-07T00:08:17.276Z,13.80
2023-05-07T00:10:47.359Z,14.67
2023-05-07T00:13:16.811Z,14.73
2023-05-07T00:15:45.437Z,13.93
2023-05-07T00:18:13.918Z,10.80
2023-05-07T00:20:42.463Z,13.77
2023-05-07T00:23:11.822Z,15.03
2023-05-07T00:25:41.797Z,16.40
2023-05-07T00:28:10.456Z,17.27
2023-05-07T00:30:39.156Z,12.37
2023-05-07T00:33:07.734Z,12.00
2023-05-07T00:35:36.357Z,14.50
2023-05-07T00:38:04.913Z,12.77
2023-05-07T00:40:33.646Z,16.53
2023-05-07T00:43:03.597Z,17.30
2023-05-07T00:45:32.370Z,14.93
2023-05-07T00:48:02.916Z,15.70
2023-05-07T00:50:32.296Z,13.93
2023-05-07T00:53:01.402Z,12.43
2023-05-07T00:55:30.582Z,14.13
2023-05-07T00:57:59.312Z,16.23
2023-05-07T01:00:29.297Z,13.23
2023-05-07T01:02:58.553Z,16.03
2023-05-07T01:05:29.539Z,12.53
2023-05-07T01:07:59.853Z,17.17
2023-05-07T01:10:28.859Z,16.27
2023-05-07T01:12:57.463Z,14.07
2023-05-07T01:15:26.447Z,15.17
2023-05-07T01:17:57.944Z,15.57
2023-05-07T01:20:33.454Z,14.83
2023-05-07T01:23:05.538Z,13.57
2023-05-07T01:25:34.173Z,12.17
2023-05-07T01:28:04.141Z,17.67
2023-05-07T01:30:38.051Z,15.30
2023-05-07T01:33:13.024Z,11.73
2023-05-07T01:35:45.839Z,17.10
2023-05-07T01:38:15.917Z,14.23
2023-05-07T01:40:44.881Z,11.87
2023-05-07T01:43:14.410Z,13.60
2023-05-07T01:45:45.448Z,14.03
2023-05-07T01:48:14.902Z,13.77
2023-05-07T01:50:44.854Z,14.83
2023-05-07T01:53:13.420Z,13.27
2023-05-07T01:55:43.356Z,16.70
2023-05-07T01:58:12.826Z,13.43
2023-05-07T02:00:42.311Z,15.33
2023-05-07T02:03:11.310Z,17.70
2023-05-07T02:05:47.333Z,14.20
2023-05-07T02:08:37.484Z,20.67
2023-05-07T02:11:07.755Z,15.03
2023-05-07T02:13:38.896Z,16.60
2023-05-07T02:16:07.994Z,13.77
2023-05-07T02:18:36.755Z,28.43
2023-05-07T02:21:05.747Z,12.23
2023-05-07T02:23:34.802Z,14.70
2023-05-07T02:26:06.456Z,14.47
2023-05-07T02:28:37.279Z,11.77
2023-05-07T02:31:07.673Z,16.13
2023-05-07T02:33:37.548Z,15.40
2023-05-07T02:36:09.811Z,14.50
2023-05-07T02:38:43.016Z,15.27
2023-05-07T02:41:12.331Z,19.10
2023-05-07T02:43:42.275Z,11.77
2023-05-07T02:46:11.960Z,17.97
2023-05-07T02:48:44.333Z,11.07
2023-05-07T02:51:12.877Z,15.17
2023-05-07T02:53:44.018Z,14.87
2023-05-07T02:56:12.582Z,17.10
2023-05-07T02:58:43.049Z,17.97
2023-05-07T03:01:13.059Z,15.23
2023-05-07T03:03:48.797Z,13.60
2023-05-07T03:06:17.427Z,21.47
2023-05-07T03:08:46.515Z,18.00
2023-05-07T03:11:15.624Z,16.53
2023-05-07T03:13:45.526Z,21.80
2023-05-07T03:16:14.552Z,19.43
2023-05-07T03:18:43.225Z,15.50
2023-05-07T03:21:11.909Z,15.40
2023-05-07T03:23:40.938Z,13.17
2023-05-07T03:26:10.315Z,14.90
2023-05-07T03:28:39.092Z,13.10
2023-05-07T03:31:13.331Z,16.50
2023-05-07T03:33:54.085Z,12.97
2023-05-07T03:36:22.981Z,14.23
2023-05-07T03:38:52.585Z,21.53
2023-05-07T03:41:24.469Z,16.60
2023-05-07T03:43:53.403Z,17.10
2023-05-07T03:46:23.496Z,18.87
2023-05-07T03:48:53.079Z,16.43
2023-05-07T03:51:22.847Z,25.43
2023-05-07T03:53:53.943Z,16.50
2023-05-07T03:56:23.966Z,18.23
2023-05-07T03:58:56.490Z,17.77
2023-05-07T04:01:26.461Z,20.90
2023-05-07T04:03:55.112Z,15.23
2023-05-07T04:06:23.796Z,16.63
2023-05-07T04:08:52.507Z,19.03
2023-05-07T04:11:21.312Z,18.13
2023-05-07T04:13:50.125Z,21.73
2023-05-07T04:16:23.575Z,21.60
2023-05-07T04:18:53.594Z,25.10
2023-05-07T04:21:23.169Z,17.13
2023-05-07T04:23:53.091Z,17.73
2023-05-07T04:26:22.349Z,19.37
2023-05-07T04:28:50.957Z,19.80
2023-05-07T04:31:20.896Z,18.00
2023-05-07T04:33:54.915Z,17.73
2023-05-07T04:36:23.919Z,18.77
2023-05-07T04:38:59.111Z,24.57
2023-05-07T04:41:27.807Z,15.57
2023-05-07T04:43:56.556Z,18.97
2023-05-07T04:46:26.767Z,20.27
2023-05-07T04:48:58.276Z,15.33
2023-05-07T04:51:26.839Z,19.27
2023-05-07T04:53:55.992Z,15.63
2023-05-07T04:56:24.593Z,27.50
2023-05-07T04:58:53.572Z,14.73
2023-05-07T05:01:24.210Z,20.77
2023-05-07T05:03:52.891Z,20.33
2023-05-07T05:06:23.918Z,20.53
2023-05-07T05:08:53.280Z,19.77
2023-05-07T05:11:22.753Z,14.90
2023-05-07T05:13:51.679Z,22.17
2023-05-07T05:16:22.761Z,26.63
2023-05-07T05:18:52.976Z,21.20
2023-05-07T05:21:23.193Z,20.60
2023-05-07T05:23:55.263Z,20.20
2023-05-07T05:26:26.896Z,18.10
2023-05-07T05:28:55.663Z,19.47
2023-05-07T05:31:26.569Z,19.33
2023-05-07T05:33:55.096Z,19.33
2023-05-07T05:36:25.172Z,18.80
2023-05-07T05:38:57.828Z,24.90
2023-05-07T05:41:26.902Z,17.23
2023-05-07T05:43:55.863Z,24.50
2023-05-07T05:46:24.475Z,14.13
2023-05-07T05:48:53.926Z,18.17
2023-05-07T05:51:24.600Z,21.83
2023-05-07T05:53:53.180Z,17.10
2023-05-07T05:56:22.186Z,15.77
2023-05-07T05:58:50.820Z,19.10
2023-05-07T06:01:19.998Z,17.20
2023-05-07T06:03:49.857Z,17.00
2023-05-07T06:06:18.461Z,15.63
2023-05-07T06:08:49.291Z,13.73
2023-05-07T06:11:23.236Z,19.73
2023-05-07T06:13:52.127Z,17.50
2023-05-07T06:16:20.736Z,16.83
2023-05-07T06:18:50.114Z,16.93
2023-05-07T06:21:18.866Z,22.93
2023-05-07T06:23:48.952Z,16.93
2023-05-07T06:26:17.710Z,21.90
2023-05-07T06:28:48.998Z,18.60
2023-05-07T06:31:21.984Z,26.63
2023-05-07T06:33:57.979Z,21.37
2023-05-07T06:36:34.347Z,19.77
2023-05-07T06:39:09.196Z,20.87
2023-05-07T06:41:38.506Z,21.93
2023-05-07T06:44:11.685Z,28.47
2023-05-07T06:46:46.174Z,17.83
2023-05-07T06:49:15.732Z,21.90
2023-05-07T06:51:44.874Z,23.37
2023-05-07T06:54:14.888Z,26.03
2023-05-07T06:56:45.606Z,22.80
2023-05-07T06:59:14.224Z,21.87
2023-05-07T07:01:44.009Z,23.80
2023-05-07T07:04:13.934Z,23.20
2023-05-07T07:06:44.948Z,19.53
2023-05-07T07:09:17.019Z,22.47
2023-05-07T07:11:45.603Z,29.30
2023-05-07T07:14:14.147Z,16.53
2023-05-07T07:16:48.818Z,17.73
2023-05-07T07:19:21.200Z,19.13
2023-05-07T07:21:52.173Z,16.37
2023-05-07T07:24:22.373Z,14.97
2023-05-07T07:26:56.325Z,14.20
2023-05-07T07:29:27.593Z,14.70
2023-05-07T07:31:56.463Z,14.70
2023-05-07T07:34:25.643Z,16.50
2023-05-07T07:36:54.438Z,15.73
2023-05-07T07:39:24.617Z,12.10
2023-05-07T07:41:56.355Z,16.80
2023-05-07T07:44:25.036Z,16.30
2023-05-07T07:46:59.615Z,15.50
2023-05-07T07:49:29.520Z,14.07
2023-05-07T07:52:00.970Z,14.43
2023-05-07T07:54:31.956Z,12.43
2023-05-07T07:57:02.353Z,12.23
2023-05-07T07:59:33.699Z,12.77
2023-05-07T08:02:02.300Z,10.67
2023-05-07T08:04:34.171Z,13.10
2023-05-07T08:07:06.801Z,12.60
2023-05-07T08:09:40.164Z,13.07
2023-05-07T08:12:09.660Z,13.50
2023-05-07T08:14:38.788Z,13.17
2023-05-07T08:17:10.733Z,16.90
2023-05-07T08:19:39.870Z,13.07
2023-05-07T08:22:11.931Z,16.07
2023-05-07T08:24:42.577Z,15.63
2023-05-07T08:27:11.602Z,15.13
2023-05-07T08:29:42.441Z,19.67
2023-05-07T08:32:11.050Z,15.30
2023-05-07T08:34:40.105Z,19.57
2023-05-07T08:37:09.982Z,19.07
2023-05-07T08:39:39.170Z,21.17
2023-05-07T08:42:17.411Z,23.37
2023-05-07T08:44:48.925Z,17.83
2023-05-07T08:47:22.374Z,18.17
2023-05-07T08:49:53.350Z,19.73
2023-05-07T08:52:22.256Z,17.70
2023-05-07T08:54:51.260Z,24.00
2023-05-07T08:57:22.681Z,18.60
2023-05-07T08:59:52.279Z,20.43
2023-05-07T09:02:21.394Z,19.10
2023-05-07T09:04:50.228Z,18.63
2023-05-07T09:07:19.326Z,15.27
2023-05-07T09:09:48.785Z,19.43
2023-05-07T09:12:17.429Z,23.00
2023-05-07T09:14:47.937Z,23.10
2023-05-07T09:17:17.835Z,23.37
2023-05-07T09:19:47.496Z,22.77
2023-05-07T09:22:17.526Z,27.97
2023-05-07T09:24:57.248Z,25.13
2023-05-07T09:27:28.771Z,24.80
2023-05-07T09:30:00.459Z,24.77
2023-05-07T09:32:29.414Z,28.17
2023-05-07T09:34:59.013Z,24.47
2023-05-07T09:37:29.124Z,22.47
2023-05-07T09:39:57.853Z,21.93
2023-05-07T09:42:28.038Z,22.30
2023-05-07T09:45:01.525Z,24.03
2023-05-07T09:47:41.016Z,23.40
2023-05-07T09:50:12.635Z,22.27
2023-05-07T09:52:44.380Z,20.27
2023-05-07T09:55:15.001Z,23.67
2023-05-07T09:57:45.805Z,19.70
2023-05-07T10:00:17.369Z,21.60
2023-05-07T10:02:59.326Z,24.77
2023-05-07T10:05:39.616Z,23.50
2023-05-07T10:08:09.900Z,18.27
2023-05-07T10:10:41.225Z,16.30
2023-05-07T10:13:12.864Z,19.70
2023-05-07T10:15:49.579Z,23.13
2023-05-07T10:18:20.425Z,19.60
2023-05-07T10:20:54.874Z,18.83
2023-05-07T10:23:26.608Z,17.10
2023-05-07T10:26:01.382Z,17.97
2023-05-07T10:28:36.194Z,16.10
2023-05-07T10:31:20.647Z,22.17
2023-05-07T10:33:53.261Z,21.10
2023-05-07T10:36:26.318Z,22.80
2023-05-07T10:38:56.898Z,14.20
2023-05-07T10:41:26.584Z,22.50
2023-05-07T10:43:55.755Z,17.10
2023-05-07T10:46:36.190Z,15.03
2023-05-07T10:49:23.986Z,21.23
2023-05-07T10:52:18.266Z,15.90
2023-05-07T10:55:22.478Z,15.30
2023-05-07T10:58:32.102Z,15.33
2023-05-07T11:01:53.794Z,20.73
2023-05-07T11:04:28.830Z,15.40
2023-05-07T11:07:26.822Z,13.40
2023-05-07T11:10:05.405Z,13.88
2023-05-07T11:12:54.521Z,13.90
2023-05-07T11:15:44.387Z,11.95
2023-05-07T11:21:37.040Z,13.95
2023-05-07T11:24:25.950Z,15.00
2023-05-07T11:27:02.307Z,16.40
2023-05-07T11:29:32.846Z,17.07
2023-05-07T11:32:08.160Z,13.25
2023-05-07T11:34:43.287Z,12.60
2023-05-07T11:37:18.664Z,14.50
2023-05-07T11:39:55.558Z,13.65
2023-05-07T11:42:30.712Z,15.25
2023-05-07T11:44:59.649Z,18.88
2023-05-07T11:47:28.616Z,15.80
2023-05-07T11:49:57.389Z,15.20
2023-05-07T11:52:27.317Z,15.53
2023-05-07T11:54:57.057Z,16.70
2023-05-07T11:57:26.051Z,17.37
2023-05-07T11:59:55.530Z,15.00
2023-05-07T12:02:26.054Z,19.43
2023-05-07T12:04:54.974Z,14.17
2023-05-07T12:07:25.856Z,11.17
2023-05-07T12:09:56.162Z,10.95
2023-05-07T12:12:24.652Z,11.45
2023-05-07T12:14:53.207Z,7.38
2023-05-07T12:17:22.101Z,8.02
2023-05-07T12:19:50.866Z,6.93
2023-05-07T12:22:20.418Z,7.00
2023-05-07T12:24:50.826Z,11.18
2023-05-07T12:27:20.931Z,8.40
2023-05-07T12:29:50.720Z,6.25
2023-05-07T12:32:20.367Z,8.25
2023-05-07T12:34:51.599Z,7.60
2023-05-07T12:37:26.244Z,14.98
2023-05-07T12:40:07.218Z,5.90
2023-05-07T12:42:38.545Z,4.45
2023-05-07T12:45:11.725Z,5.82
2023-05-07T12:47:40.600Z,10.65
2023-05-07T12:50:09.869Z,7.28
2023-05-07T12:52:38.623Z,7.20
2023-05-07T12:55:07.955Z,7.85
2023-05-07T12:57:42.384Z,8.55
2023-05-07T13:00:12.133Z,7.95
2023-05-07T13:02:42.096Z,5.07
2023-05-07T13:05:11.088Z,12.23
2023-05-07T13:07:40.075Z,7.63
2023-05-07T13:10:09.978Z,7.55
2023-05-07T13:12:38.678Z,7.28
2023-05-07T13:15:09.848Z,7.53
2023-05-07T13:17:38.768Z,7.93
2023-05-07T13:20:09.168Z,7.63
2023-05-07T13:22:37.911Z,7.30
2023-05-07T13:25:07.557Z,10.68
2023-05-07T13:27:37.765Z,9.52
2023-05-07T13:30:09.074Z,10.18
2023-05-07T13:32:37.678Z,10.30
2023-05-07T13:35:07.164Z,10.40
2023-05-07T13:37:35.740Z,9.90
2023-05-07T13:40:05.584Z,10.90
2023-05-07T13:42:34.285Z,11.80
2023-05-07T13:45:05.030Z,12.37
2023-05-07T13:47:34.989Z,12.70
2023-05-07T13:50:03.793Z,13.80
2023-05-07T13:52:32.289Z,14.63
2023-05-07T13:55:00.767Z,16.93
2023-05-07T13:57:29.319Z,11.93
2023-05-07T13:59:57.919Z,18.23
2023-05-07T14:02:26.669Z,15.83
2023-05-07T14:04:56.788Z,16.00
2023-05-07T14:07:25.354Z,14.03
2023-05-07T14:09:53.952Z,15.43
2023-05-07T14:12:22.506Z,16.23
2023-05-07T14:14:51.740Z,16.97
2023-05-07T14:17:21.152Z,18.80
2023-05-07T14:19:49.845Z,21.53
2023-05-07T14:22:19.764Z,15.60
2023-05-07T14:24:55.966Z,13.93
2023-05-07T14:27:34.368Z,15.10
2023-05-07T14:30:03.122Z,19.27
2023-05-07T14:32:31.703Z,12.77
2023-05-07T14:35:00.276Z,14.43
2023-05-07T14:37:30.183Z,12.20
2023-05-07T14:39:58.763Z,17.77
2023-05-07T14:42:27.473Z,15.40
2023-05-07T14:44:56.090Z,13.63
2023-05-07T14:47:24.587Z,15.17
2023-05-07T14:49:54.122Z,14.37
2023-05-07T14:52:22.697Z,16.83
2023-05-07T14:54:52.624Z,13.53
2023-05-07T14:57:21.354Z,14.87
2023-05-07T14:59:50.180Z,15.93
2023-05-07T15:02:21.372Z,12.13
2023-05-07T15:04:50.193Z,12.47
2023-05-07T15:07:18.757Z,18.17
2023-05-07T15:09:48.106Z,16.20
2023-05-07T15:12:18.076Z,15.27
2023-05-07T15:14:46.634Z,17.90
2023-05-07T15:17:16.691Z,15.83
2023-05-07T15:19:45.205Z,17.80
2023-05-07T15:22:13.794Z,14.63
2023-05-07T15:24:43.005Z,14.43
2023-05-07T15:27:12.220Z,15.00
2023-05-07T15:29:42.149Z,14.13
2023-05-07T15:32:11.488Z,13.03
2023-05-07T15:34:40.170Z,9.23
2023-05-07T15:37:09.007Z,13.17
2023-05-07T15:39:37.646Z,12.03
2023-05-07T15:42:06.439Z,9.87
2023-05-07T15:44:35.990Z,7.57
2023-05-07T15:47:06.161Z,3.83
2023-05-07T15:49:34.948Z,3.30
2023-05-07T15:52:03.806Z,6.93
2023-05-07T15:54:32.513Z,8.40
2023-05-07T15:57:01.958Z,4.60
2023-05-07T15:59:30.498Z,3.47
2023-05-07T16:01:59.047Z,3.00
2023-05-07T16:04:29.152Z,7.07
2023-05-07T16:06:58.427Z,5.20
2023-05-07T16:09:29.269Z,6.33
2023-05-07T16:11:57.957Z,9.57
2023-05-07T16:14:26.631Z,10.33
2023-05-07T16:16:56.836Z,17.60
2023-05-07T16:19:26.129Z,18.13
2023-05-07T16:21:56.242Z,8.13
2023-05-07T16:24:24.864Z,6.67
2023-05-07T16:26:53.429Z,3.23
2023-05-07T16:29:23.106Z,5.73
2023-05-07T16:31:51.892Z,2.53
2023-05-07T16:34:20.515Z,6.60
2023-05-07T16:36:49.075Z,10.47
2023-05-07T16:39:18.951Z,4.33
2023-05-07T16:41:48.745Z,6.50
2023-05-07T16:44:17.584Z,7.10
2023-05-07T16:46:46.234Z,10.03
2023-05-07T16:49:14.838Z,10.27
2023-05-07T16:51:44.473Z,7.07
2023-05-07T16:54:12.995Z,7.43
2023-05-07T16:56:44.029Z,9.37
2023-05-07T16:59:12.724Z,5.43
2023-05-07T17:01:42.742Z,12.33
2023-05-07T17:04:11.543Z,11.80
2023-05-07T17:06:40.162Z,8.77
2023-05-07T17:09:09.363Z,9.37
2023-05-07T17:11:37.922Z,11.23
2023-05-07T17:14:07.880Z,7.67
2023-05-07T17:16:36.491Z,11.50
2023-05-07T17:19:05.096Z,9.27
2023-05-07T17:21:33.707Z,7.43
2023-05-07T17:24:02.224Z,7.43
2023-05-07T17:26:31.791Z,8.50
2023-05-07T17:29:00.354Z,7.77
2023-05-07T17:31:30.454Z,10.03
2023-05-07T17:34:01.201Z,8.87
2023-05-07T17:36:29.728Z,11.80
2023-05-07T17:38:58.366Z,7.47
2023-05-07T17:41:26.998Z,8.43
2023-05-07T17:43:55.536Z,7.97
2023-05-07T17:46:24.155Z,8.87
2023-05-07T17:48:54.175Z,10.77
2023-05-07T17:51:22.712Z,10.00
2023-05-07T17:53:51.243Z,12.40
2023-05-07T17:56:19.765Z,14.00
2023-05-07T18:01:23.296Z,15.47
2023-05-07T18:03:53.484Z,13.73
2023-05-07T18:06:23.294Z,14.97
2023-05-07T18:08:51.880Z,14.13
2023-05-07T18:11:21.468Z,13.77
2023-05-07T18:13:50.057Z,13.43
2023-05-07T18:16:19.864Z,9.40
2023-05-07T18:18:48.466Z,9.20
2023-05-07T18:21:18.860Z,16.67
2023-05-07T18:23:47.851Z,9.73
2023-05-07T18:26:16.552Z,14.37
2023-05-07T18:28:46.003Z,13.00
2023-05-07T18:31:14.657Z,8.67
2023-05-07T18:33:43.251Z,11.87
2023-05-07T18:36:11.877Z,11.20
2023-05-07T18:38:42.629Z,11.13
2023-05-07T18:41:11.300Z,18.07
2023-05-07T18:43:39.979Z,10.10
2023-05-07T18:46:08.587Z,14.67
2023-05-07T18:48:37.213Z,17.73
2023-05-07T18:51:05.823Z,11.60
2023-05-07T18:53:34.398Z,12.13
2023-05-07T18:56:05.691Z,12.30
2023-05-07T18:58:34.727Z,19.87
2023-05-07T19:01:07.947Z,10.60
2023-05-07T19:03:36.804Z,10.47
2023-05-07T19:06:06.056Z,12.30
2023-05-07T19:08:34.720Z,11.17
2023-05-07T19:11:04.977Z,13.27
2023-05-07T19:13:33.663Z,13.10
2023-05-07T19:16:02.277Z,9.50
2023-05-07T19:18:31.898Z,15.77
2023-05-07T19:21:01.231Z,13.80
2023-05-07T19:23:29.902Z,13.63
2023-05-07T19:25:58.596Z,11.00
2023-05-07T19:28:30.093Z,11.67
2023-05-07T19:30:58.805Z,14.53
2023-05-07T19:33:29.802Z,14.13
2023-05-07T19:35:59.570Z,17.70
2023-05-07T19:38:29.264Z,17.93
2023-05-07T19:40:58.717Z,14.73
2023-05-07T19:43:28.747Z,16.37
2023-05-07T19:45:57.429Z,14.77
2023-05-07T19:48:26.151Z,17.00
2023-05-07T19:50:55.353Z,21.60
2023-05-07T19:53:24.001Z,18.90
2023-05-07T19:56:00.773Z,20.23
2023-05-07T19:58:30.787Z,16.73
2023-05-07T20:00:59.458Z,18.67
2023-05-07T20:03:28.519Z,22.13
2023-05-07T20:05:57.273Z,17.97
2023-05-07T20:08:26.433Z,19.23
2023-05-07T20:10:55.633Z,15.63
2023-05-07T20:13:24.407Z,19.50
2023-05-07T20:15:58.699Z,18.00
2023-05-07T20:18:29.268Z,16.30
2023-05-07T20:20:58.159Z,18.57
2023-05-07T20:23:26.825Z,17.33
2023-05-07T20:25:55.498Z,28.37
2023-05-07T20:28:24.083Z,24.20
2023-05-07T20:30:53.941Z,22.87
2023-05-07T20:33:22.676Z,26.00
2023-05-07T20:35:51.213Z,20.10
2023-05-07T20:38:19.861Z,24.73
2023-05-07T20:40:48.464Z,18.00
2023-05-07T20:43:18.977Z,20.70
2023-05-07T20:45:48.908Z,21.17
2023-05-07T20:48:18.903Z,19.77
2023-05-07T20:50:47.426Z,21.77
2023-05-07T20:53:15.912Z,12.67
2023-05-07T20:55:44.609Z,19.93
2023-05-07T20:58:16.158Z,24.57
2023-05-07T21:00:44.766Z,22.50
2023-05-07T21:03:13.383Z,20.20
2023-05-07T21:05:43.314Z,24.40
2023-05-07T21:08:11.831Z,18.10
2023-05-07T21:10:40.445Z,57.90
2023-05-07T21:13:09.435Z,149.83
2023-05-07T21:15:38.034Z,146.83
2023-05-07T21:18:06.854Z,62.97
2023-05-07T21:20:35.471Z,42.30
2023-05-07T21:23:07.444Z,193.80
2023-05-07T21:25:39.325Z,164.60
2023-05-07T21:28:08.352Z,113.00
2023-05-07T21:30:37.300Z,88.27
2023-05-07T21:33:08.587Z,37.60
2023-05-07T21:35:37.287Z,41.00
2023-05-07T21:38:07.209Z,34.53
2023-05-07T21:40:35.920Z,27.50
2023-05-07T21:43:04.554Z,16.80
2023-05-07T21:45:33.250Z,18.63
2023-05-07T21:48:01.856Z,16.87
2023-05-07T21:50:33.183Z,17.93
2023-05-07T21:53:01.776Z,18.23
2023-05-07T21:55:31.892Z,18.23
2023-05-07T21:58:05.420Z,16.30
2023-05-07T22:00:34.743Z,17.00
2023-05-07T22:03:03.325Z,20.00
2023-05-07T22:05:31.895Z,17.57
2023-05-07T22:08:01.105Z,22.87
2023-05-07T22:10:31.450Z,20.23
2023-05-07T22:13:00.104Z,24.93
2023-05-07T22:15:28.712Z,72.10
2023-05-07T22:17:57.256Z,125.07
2023-05-07T22:20:26.044Z,159.60
2023-05-07T22:22:56.656Z,128.50
2023-05-07T22:25:26.159Z,22.63
2023-05-07T22:27:56.139Z,20.83
2023-05-07T22:30:24.773Z,24.13
2023-05-07T22:32:53.439Z,33.27
2023-05-07T22:35:22.080Z,42.87
2023-05-07T22:37:50.661Z,85.07
2023-05-07T22:40:19.567Z,92.87
2023-05-07T22:42:48.180Z,116.70
2023-05-07T22:45:18.362Z,48.43
2023-05-07T22:47:46.918Z,69.80
2023-05-07T22:50:15.698Z,44.80
2023-05-07T22:52:44.181Z,27.67
2023-05-07T22:55:12.732Z,22.53
2023-05-07T22:57:41.304Z,13.53
2023-05-07T23:00:11.080Z,18.20
2023-05-07T23:02:41.289Z,16.93
2023-05-07T23:05:10.186Z,15.93
2023-05-07T23:07:38.709Z,16.83
2023-05-07T23:10:08.254Z,14.70
2023-05-07T23:12:36.874Z,13.13
2023-05-07T23:15:06.367Z,14.07
2023-05-07T23:17:35.338Z,18.57
2023-05-07T23:20:05.792Z,17.77
2023-05-07T23:22:34.532Z,17.33
2023-05-07T23:25:03.455Z,18.40
2023-05-07T23:27:32.459Z,23.27
2023-05-07T23:30:00.986Z,29.17
2023-05-07T23:32:29.660Z,29.10
2023-05-07T23:34:58.264Z,30.07
2023-05-07T23:37:28.533Z,25.53
2023-05-07T23:39:57.342Z,37.57
2023-05-07T23:42:25.947Z,26.07
2023-05-07T23:44:54.660Z,19.00
2023-05-07T23:47:23.310Z,18.90
2023-05-07T23:49:51.890Z,18.70
2023-05-07T23:52:21.079Z,18.03
2023-05-07T23:54:51.100Z,17.00
2023-05-07T23:57:19.672Z,13.57
2023-05-07T23:59:48.207Z,13.07
